Time;durP1;ratioP1;P1;durP2;ratioP2;P2;SDS_P1;SDS_P2;PMS_P1;PMS_P2;Temp;Humidity;BMP_temperature;BMP_pressure;BME280_temperature;BME280_humidity;BME280_pressure;Samples;Min_cycle;Max_cycle;Signal;HPM_P1;HPM_P2
2022/07/17 00:01:19;;;;;;;8.35;2.85;;;11.80;99.90;;;;;;5068482;28;20111;-65
2022/07/17 00:03:45;;;;;;;9.68;2.60;;;11.70;99.90;;;;;;5069275;28;20492;-65
2022/07/17 00:06:11;;;;;;;7.55;2.75;;;11.60;99.90;;;;;;5068501;28;20033;-65
2022/07/17 00:08:36;;;;;;;10.40;3.15;;;11.50;99.90;;;;;;5069070;28;20111;-65
2022/07/17 00:11:02;;;;;;;9.32;2.85;;;11.40;99.90;;;;;;5067246;28;20100;-65
2022/07/17 00:13:28;;;;;;;6.70;2.70;;;11.30;99.90;;;;;;5068427;28;20052;-65
2022/07/17 00:15:54;;;;;;;8.27;2.80;;;11.30;99.90;;;;;;5039540;28;20063;-65
2022/07/17 00:18:19;;;;;;;9.52;3.40;;;11.30;99.90;;;;;;5050494;28;20108;-65
2022/07/17 00:20:45;;;;;;;9.13;3.47;;;11.30;99.90;;;;;;5050971;28;20044;-65
2022/07/17 00:23:11;;;;;;;8.35;2.92;;;11.30;99.90;;;;;;5068387;28;20017;-65
2022/07/17 00:25:37;;;;;;;9.88;3.15;;;11.20;99.90;;;;;;5069042;28;20467;-65
2022/07/17 00:28:03;;;;;;;9.00;3.25;;;11.10;99.90;;;;;;5050736;28;20112;-65
2022/07/17 00:30:29;;;;;;;9.30;3.03;;;11.00;99.90;;;;;;5067572;28;20048;-65
2022/07/17 00:32:54;;;;;;;8.10;3.28;;;10.90;99.90;;;;;;5050928;28;20474;-65
2022/07/17 00:35:20;;;;;;;12.77;3.80;;;10.90;99.90;;;;;;5068257;28;20655;-65
2022/07/17 00:37:47;;;;;;;8.25;3.40;;;10.80;99.90;;;;;;5068909;28;20059;-65
2022/07/17 00:40:18;;;;;;;9.13;3.08;;;10.70;99.90;;;;;;5068177;28;20089;-65
2022/07/17 00:42:43;;;;;;;8.73;3.47;;;10.70;99.90;;;;;;5067018;28;20059;-65
2022/07/17 00:45:10;;;;;;;11.77;3.83;;;10.60;99.90;;;;;;5068028;28;20041;-65
2022/07/17 00:47:51;;;;;;;8.50;3.08;;;10.60;99.90;;;;;;5068635;28;20060;-65
2022/07/17 00:50:17;;;;;;;7.57;3.13;;;10.50;99.90;;;;;;5063020;28;20025;-65
2022/07/17 00:52:43;;;;;;;9.25;3.38;;;10.50;99.90;;;;;;5068464;28;20083;-65
2022/07/17 00:55:10;;;;;;;9.10;3.28;;;10.50;99.90;;;;;;5067922;28;20504;-65
2022/07/17 00:57:39;;;;;;;10.82;3.33;;;10.50;99.90;;;;;;5068196;28;20017;-65
2022/07/17 01:00:09;;;;;;;8.40;3.45;;;10.40;99.90;;;;;;5064112;28;20500;-66
2022/07/17 01:02:35;;;;;;;8.45;3.13;;;10.40;99.90;;;;;;5050190;28;20016;-65
2022/07/17 01:05:01;;;;;;;10.23;3.47;;;10.40;99.90;;;;;;5068252;28;20388;-66
2022/07/17 01:07:26;;;;;;;8.80;3.45;;;10.40;99.90;;;;;;5064047;28;20564;-66
2022/07/17 01:09:52;;;;;;;8.68;3.60;;;10.30;99.90;;;;;;5068421;28;20029;-66
2022/07/17 01:12:18;;;;;;;11.23;3.58;;;10.30;99.90;;;;;;5065415;28;20025;-66
2022/07/17 01:14:44;;;;;;;9.30;3.45;;;10.20;99.90;;;;;;5067774;28;20025;-66
2022/07/17 01:17:11;;;;;;;12.10;3.45;;;10.20;99.90;;;;;;5064557;28;20020;-66
2022/07/17 01:19:36;;;;;;;10.63;4.15;;;10.10;99.90;;;;;;5066347;28;20042;-66
2022/07/17 01:22:02;;;;;;;9.52;4.47;;;10.10;99.90;;;;;;5044789;28;20028;-66
2022/07/17 01:24:28;;;;;;;9.52;3.50;;;10.00;99.90;;;;;;5065112;28;20025;-66
2022/07/17 01:26:53;;;;;;;8.25;3.30;;;10.00;99.90;;;;;;5058246;28;20032;-66
2022/07/17 01:29:19;;;;;;;9.18;3.40;;;9.90;99.90;;;;;;5062817;28;20028;-65
2022/07/17 01:31:45;;;;;;;10.35;3.80;;;9.90;99.90;;;;;;5047840;28;20422;-65
2022/07/17 01:34:15;;;;;;;10.48;3.63;;;9.80;99.90;;;;;;5065430;28;20067;-65
2022/07/17 01:36:41;;;;;;;8.30;3.22;;;9.80;99.90;;;;;;5043777;28;20099;-65
2022/07/17 01:39:07;;;;;;;8.13;3.10;;;9.80;99.90;;;;;;5046668;28;20028;-66
2022/07/17 01:41:33;;;;;;;10.20;3.28;;;9.70;99.90;;;;;;5064077;28;20050;-66
2022/07/17 01:43:59;;;;;;;8.07;3.30;;;9.70;99.90;;;;;;5066564;28;20037;-65
2022/07/17 01:46:25;;;;;;;10.65;3.53;;;9.70;99.90;;;;;;5065309;28;20510;-65
2022/07/17 01:48:51;;;;;;;11.10;3.72;;;9.70;99.90;;;;;;5046733;28;20036;-66
2022/07/17 01:51:16;;;;;;;9.98;3.75;;;9.70;99.90;;;;;;5041089;28;20477;-66
2022/07/17 01:53:42;;;;;;;8.20;3.38;;;9.60;99.90;;;;;;5063997;28;20019;-65
2022/07/17 01:56:08;;;;;;;9.82;3.40;;;9.60;99.90;;;;;;5066265;28;20020;-67
2022/07/17 01:58:34;;;;;;;8.75;3.58;;;9.60;99.90;;;;;;5063966;28;20017;-65
2022/07/17 02:00:59;;;;;;;10.07;3.42;;;9.60;99.90;;;;;;5065185;28;20048;-65
2022/07/17 02:03:25;;;;;;;9.93;3.60;;;9.60;99.90;;;;;;5065406;28;20036;-66
2022/07/17 02:05:51;;;;;;;9.85;3.40;;;9.60;99.90;;;;;;5066090;28;20035;-66
2022/07/17 02:08:17;;;;;;;9.43;3.22;;;9.50;99.90;;;;;;5065142;28;20297;-65
2022/07/17 02:10:42;;;;;;;11.38;3.40;;;9.50;99.90;;;;;;5063208;28;20049;-66
2022/07/17 02:13:08;;;;;;;7.20;3.13;;;9.50;99.90;;;;;;5063894;28;20462;-66
2022/07/17 02:15:34;;;;;;;6.50;2.78;;;9.50;99.90;;;;;;5065445;28;20506;-65
2022/07/17 02:17:59;;;;;;;7.53;3.03;;;9.40;99.90;;;;;;5065639;28;20029;-65
2022/07/17 02:20:25;;;;;;;7.90;3.20;;;9.40;99.90;;;;;;5065372;28;20052;-65
2022/07/17 02:22:51;;;;;;;10.25;3.45;;;9.40;99.90;;;;;;5065805;28;20103;-66
2022/07/17 02:25:17;;;;;;;8.90;3.17;;;9.40;99.90;;;;;;5065565;28;20082;-65
2022/07/17 02:27:43;;;;;;;9.88;3.08;;;9.30;99.90;;;;;;5065736;28;20032;-65
2022/07/17 02:30:16;;;;;;;9.93;3.15;;;9.20;99.90;;;;;;5065875;28;20387;-65
2022/07/17 02:32:43;;;;;;;11.20;3.75;;;9.20;99.90;;;;;;5063046;28;20035;-66
2022/07/17 02:35:10;;;;;;;7.97;3.30;;;9.30;99.90;;;;;;5065669;28;20557;-65
2022/07/17 02:37:37;;;;;;;10.10;3.38;;;9.30;99.90;;;;;;5065857;28;20107;-65
2022/07/17 02:40:04;;;;;;;10.65;3.40;;;9.30;99.90;;;;;;5065807;28;20302;-65
2022/07/17 02:42:30;;;;;;;12.93;3.72;;;9.20;99.90;;;;;;5063184;28;20136;-66
2022/07/17 02:44:57;;;;;;;9.15;3.15;;;9.20;99.90;;;;;;5065598;28;20447;-65
2022/07/17 02:47:31;;;;;;;11.45;3.15;;;9.20;99.90;;;;;;5064621;28;20024;-65
2022/07/17 02:49:58;;;;;;;9.02;3.30;;;9.10;99.90;;;;;;5064042;28;20028;-65
2022/07/17 02:52:24;;;;;;;8.82;3.35;;;9.10;99.90;;;;;;5048123;28;20024;-65
2022/07/17 02:54:50;;;;;;;8.80;3.20;;;9.10;99.90;;;;;;5068598;28;20463;-65
2022/07/17 02:57:16;;;;;;;8.13;3.13;;;9.00;99.90;;;;;;5050384;28;20052;-66
2022/07/17 02:59:41;;;;;;;7.00;3.03;;;8.90;99.90;;;;;;5069028;28;20140;-65
2022/07/17 03:02:07;;;;;;;8.07;3.10;;;8.90;99.90;;;;;;5069035;28;20456;-65
2022/07/17 03:04:33;;;;;;;7.22;2.85;;;8.90;99.90;;;;;;5068300;28;20064;-65
2022/07/17 03:06:59;;;;;;;8.20;3.15;;;8.80;99.90;;;;;;5069002;28;20036;-65
2022/07/17 03:09:24;;;;;;;9.98;3.30;;;8.70;99.90;;;;;;5050211;28;20389;-65
2022/07/17 03:11:50;;;;;;;8.32;3.05;;;8.70;99.90;;;;;;5067482;28;20028;-65
2022/07/17 03:14:16;;;;;;;8.32;3.10;;;8.80;99.90;;;;;;5065424;28;20052;-65
2022/07/17 03:16:41;;;;;;;9.13;3.10;;;8.80;99.90;;;;;;5068891;28;20103;-65
2022/07/17 03:19:07;;;;;;;11.52;3.63;;;8.90;99.90;;;;;;5068785;28;20025;-65
2022/07/17 03:21:33;;;;;;;8.38;3.20;;;8.80;99.90;;;;;;5068530;28;20056;-65
2022/07/17 03:23:58;;;;;;;8.32;3.35;;;8.90;99.90;;;;;;5050045;28;20109;-65
2022/07/17 03:26:24;;;;;;;11.18;4.35;;;9.00;99.90;;;;;;5049983;28;20114;-65
2022/07/17 03:28:49;;;;;;;9.65;3.55;;;8.90;99.90;;;;;;5050185;28;20154;-65
2022/07/17 03:31:15;;;;;;;9.48;3.55;;;9.00;99.90;;;;;;5068020;28;20048;-66
2022/07/17 03:33:41;;;;;;;9.77;3.70;;;8.90;99.90;;;;;;5068270;28;20023;-65
2022/07/17 03:36:07;;;;;;;9.80;3.53;;;8.80;99.90;;;;;;5068078;28;20024;-65
2022/07/17 03:38:33;;;;;;;11.57;3.63;;;8.80;99.90;;;;;;5067091;28;20032;-65
2022/07/17 03:40:59;;;;;;;10.13;3.90;;;8.80;99.90;;;;;;5048068;28;20480;-65
2022/07/17 03:43:25;;;;;;;9.32;3.90;;;8.80;99.90;;;;;;5067034;28;20110;-65
2022/07/17 03:45:50;;;;;;;9.45;3.83;;;8.90;99.90;;;;;;5050197;28;20025;-65
2022/07/17 03:48:17;;;;;;;8.68;3.90;;;8.90;99.90;;;;;;5067503;28;20039;-65
2022/07/17 03:50:43;;;;;;;10.57;3.83;;;8.90;99.90;;;;;;5068092;28;20036;-65
2022/07/17 03:53:08;;;;;;;10.68;4.47;;;8.80;99.90;;;;;;5068299;28;20393;-65
2022/07/17 03:55:34;;;;;;;13.30;3.58;;;8.80;99.90;;;;;;5067830;28;20092;-65
2022/07/17 03:57:59;;;;;;;8.80;3.80;;;8.80;99.90;;;;;;5068077;28;20028;-65
2022/07/17 04:00:26;;;;;;;12.32;3.80;;;8.80;99.90;;;;;;5067215;28;20045;-65
2022/07/17 04:02:51;;;;;;;10.68;3.65;;;8.80;99.90;;;;;;5067607;28;20028;-65
2022/07/17 04:05:17;;;;;;;11.82;4.15;;;8.90;99.90;;;;;;5048180;28;20048;-66
2022/07/17 04:07:44;;;;;;;9.95;3.78;;;8.80;99.90;;;;;;5067870;28;20590;-65
2022/07/17 04:10:12;;;;;;;11.00;4.10;;;8.90;99.90;;;;;;5067830;28;20035;-65
2022/07/17 04:12:38;;;;;;;9.82;3.75;;;8.90;99.90;;;;;;5065404;28;20096;-65
2022/07/17 04:15:05;;;;;;;12.23;3.85;;;8.90;99.90;;;;;;5067813;28;20029;-65
2022/07/17 04:17:31;;;;;;;8.98;3.67;;;9.00;99.90;;;;;;5049274;28;20020;-65
2022/07/17 04:19:57;;;;;;;10.75;3.75;;;9.10;99.90;;;;;;5067519;28;20309;-65
2022/07/17 04:22:23;;;;;;;12.75;3.58;;;9.10;99.90;;;;;;5066993;28;20395;-65
2022/07/17 04:24:50;;;;;;;9.48;3.63;;;9.20;99.90;;;;;;5064707;28;20031;-65
2022/07/17 04:27:15;;;;;;;10.02;3.92;;;9.30;99.90;;;;;;5049756;28;20090;-65
2022/07/17 04:29:41;;;;;;;11.10;3.72;;;9.40;99.90;;;;;;5067304;28;20021;-65
2022/07/17 04:32:07;;;;;;;10.35;4.18;;;9.50;99.90;;;;;;5067671;28;20419;-65
2022/07/17 04:34:33;;;;;;;11.90;4.03;;;9.70;99.90;;;;;;5066689;28;20047;-65
2022/07/17 04:36:59;;;;;;;8.30;3.50;;;10.00;99.90;;;;;;5067217;28;20309;-65
2022/07/17 04:39:25;;;;;;;11.70;3.60;;;10.20;99.90;;;;;;5066701;28;20085;-66
2022/07/17 04:41:51;;;;;;;9.07;4.03;;;10.30;99.90;;;;;;5065471;28;20097;-65
2022/07/17 04:44:18;;;;;;;9.77;3.53;;;10.50;99.90;;;;;;5066352;28;20550;-65
2022/07/17 04:46:44;;;;;;;9.25;3.58;;;10.60;99.90;;;;;;5067645;28;20400;-66
2022/07/17 04:49:09;;;;;;;9.93;3.30;;;10.80;99.90;;;;;;5066972;28;20017;-65
2022/07/17 04:51:35;;;;;;;9.55;3.95;;;10.90;99.90;;;;;;5048345;28;20025;-65
2022/07/17 04:54:00;;;;;;;9.20;3.30;;;10.90;99.90;;;;;;5067060;28;20082;-65
2022/07/17 04:56:26;;;;;;;9.20;3.15;;;10.90;99.90;;;;;;5064321;28;20035;-65
2022/07/17 04:58:52;;;;;;;12.32;3.75;;;10.90;99.90;;;;;;5064368;28;20020;-65
2022/07/17 05:01:18;;;;;;;10.38;3.60;;;11.00;99.90;;;;;;5046831;28;20021;-65
2022/07/17 05:03:44;;;;;;;10.40;3.40;;;10.90;99.90;;;;;;5027404;28;20397;-65
2022/07/17 05:06:10;;;;;;;9.20;3.30;;;10.90;99.90;;;;;;5045877;28;20111;-65
2022/07/17 05:08:36;;;;;;;7.38;3.50;;;10.90;99.90;;;;;;5028025;28;20390;-65
2022/07/17 05:11:01;;;;;;;8.32;3.25;;;10.90;99.90;;;;;;5044862;28;20025;-65
2022/07/17 05:13:27;;;;;;;11.40;3.60;;;11.00;99.90;;;;;;5046274;28;20397;-65
2022/07/17 05:15:53;;;;;;;9.07;3.47;;;11.10;99.90;;;;;;5046459;28;20631;-65
2022/07/17 05:18:18;;;;;;;7.03;2.95;;;11.20;99.90;;;;;;5046365;28;20348;-65
2022/07/17 05:20:44;;;;;;;9.13;3.33;;;11.30;99.90;;;;;;5046555;28;20021;-65
2022/07/17 05:23:10;;;;;;;7.82;3.22;;;11.40;99.90;;;;;;5028881;28;20572;-65
2022/07/17 05:25:35;;;;;;;9.13;3.83;;;11.60;99.90;;;;;;5028103;28;20036;-65
2022/07/17 05:28:02;;;;;;;7.95;3.10;;;11.70;99.90;;;;;;5046047;28;20395;-65
2022/07/17 05:30:28;;;;;;;9.35;3.13;;;11.70;99.90;;;;;;5027758;28;20029;-65
2022/07/17 05:32:54;;;;;;;12.35;3.13;;;12.00;99.90;;;;;;5046844;28;20416;-65
2022/07/17 05:35:19;;;;;;;9.50;3.30;;;12.10;99.90;;;;;;5045708;28;20025;-65
2022/07/17 05:37:45;;;;;;;9.30;3.10;;;12.40;99.90;;;;;;5046366;28;20380;-65
2022/07/17 05:40:11;;;;;;;9.25;3.00;;;12.50;99.90;;;;;;5046393;28;20143;-65
2022/07/17 05:42:37;;;;;;;7.70;2.80;;;12.60;99.90;;;;;;5044482;28;20103;-65
2022/07/17 05:45:03;;;;;;;9.95;2.90;;;12.70;99.90;;;;;;5046063;28;20033;-65
2022/07/17 05:47:29;;;;;;;11.23;2.80;;;12.80;99.90;;;;;;5027782;28;20021;-65
2022/07/17 05:49:54;;;;;;;9.60;2.78;;;12.90;99.90;;;;;;5048275;28;20349;-65
2022/07/17 05:52:20;;;;;;;7.63;2.70;;;13.10;99.90;;;;;;5044066;28;20029;-65
2022/07/17 05:54:45;;;;;;;8.05;2.88;;;13.10;99.90;;;;;;5046621;28;20430;-66
2022/07/17 05:57:12;;;;;;;11.20;2.70;;;13.20;99.90;;;;;;5046524;28;20020;-65
2022/07/17 05:59:37;;;;;;;8.95;2.70;;;13.40;99.90;;;;;;5056606;28;20543;-65
2022/07/17 06:02:03;;;;;;;7.45;2.53;;;13.60;99.90;;;;;;5047755;28;20060;-65
2022/07/17 06:04:29;;;;;;;11.85;2.95;;;13.70;99.90;;;;;;5065581;28;20031;-65
2022/07/17 06:06:55;;;;;;;7.55;2.40;;;13.90;99.90;;;;;;5066564;28;20025;-65
2022/07/17 06:09:20;;;;;;;9.13;2.65;;;13.90;99.90;;;;;;5065230;28;20025;-65
2022/07/17 06:11:46;;;;;;;8.90;2.53;;;14.00;99.90;;;;;;5064225;28;20036;-65
2022/07/17 06:14:12;;;;;;;8.35;2.55;;;14.10;99.90;;;;;;5066208;28;20123;-65
2022/07/17 06:16:37;;;;;;;9.65;2.53;;;14.30;99.90;;;;;;5048310;28;20705;-65
2022/07/17 06:19:03;;;;;;;7.75;2.22;;;14.40;99.90;;;;;;5066163;28;20399;-65
2022/07/17 06:21:28;;;;;;;7.57;2.53;;;14.50;99.90;;;;;;5061452;28;20025;-65
2022/07/17 06:23:54;;;;;;;9.63;2.33;;;14.50;99.90;;;;;;5065792;28;20078;-65
2022/07/17 06:26:20;;;;;;;7.07;2.20;;;14.70;99.90;;;;;;5065202;28;20032;-66
2022/07/17 06:28:45;;;;;;;5.72;1.90;;;14.80;99.90;;;;;;5069375;28;20039;-66
2022/07/17 06:31:11;;;;;;;7.75;2.20;;;14.90;99.90;;;;;;5069972;28;20506;-66
2022/07/17 06:33:38;;;;;;;9.88;2.00;;;15.10;99.90;;;;;;5069180;28;20059;-66
2022/07/17 06:36:04;;;;;;;7.20;2.30;;;15.20;99.90;;;;;;5051500;28;20020;-65
2022/07/17 06:38:29;;;;;;;8.43;2.30;;;15.20;99.90;;;;;;5069081;28;20171;-65
2022/07/17 06:40:55;;;;;;;6.35;2.33;;;15.40;99.90;;;;;;5069564;28;20100;-65
2022/07/17 06:43:22;;;;;;;7.53;2.05;;;15.50;99.90;;;;;;5066857;28;20029;-65
2022/07/17 06:45:47;;;;;;;7.18;2.17;;;15.60;99.90;;;;;;5069282;28;20174;-65
2022/07/17 06:48:13;;;;;;;7.07;2.25;;;15.70;99.90;;;;;;5051290;28;20112;-65
2022/07/17 06:50:39;;;;;;;7.47;2.17;;;15.90;99.90;;;;;;5068536;28;20016;-66
2022/07/17 06:53:05;;;;;;;6.05;2.00;;;16.00;99.90;;;;;;5051378;28;20017;-65
2022/07/17 06:55:31;;;;;;;5.50;1.80;;;16.10;99.90;;;;;;5067750;28;20095;-66
2022/07/17 06:57:57;;;;;;;5.72;1.80;;;16.30;99.90;;;;;;5069450;28;20143;-65
2022/07/17 07:00:22;;;;;;;8.63;2.17;;;16.50;99.90;;;;;;5068214;28;20169;-65
2022/07/17 07:02:48;;;;;;;5.65;1.80;;;16.70;99.90;;;;;;5069135;28;20467;-66
2022/07/17 07:05:14;;;;;;;10.88;1.85;;;16.90;99.90;;;;;;5069175;28;20102;-66
2022/07/17 07:07:39;;;;;;;6.30;1.83;;;17.00;99.90;;;;;;5050702;28;20332;-66
2022/07/17 07:10:05;;;;;;;8.02;1.98;;;17.00;99.90;;;;;;5068780;28;20092;-66
2022/07/17 07:12:31;;;;;;;5.95;1.80;;;17.10;99.90;;;;;;5066776;28;20483;-66
2022/07/17 07:14:57;;;;;;;5.30;1.70;;;17.20;99.90;;;;;;5068895;28;20066;-65
2022/07/17 07:17:22;;;;;;;6.70;1.70;;;17.30;99.90;;;;;;5068545;28;20020;-65
2022/07/17 07:19:48;;;;;;;15.07;2.05;;;17.40;99.90;;;;;;5068853;28;20499;-65
2022/07/17 07:22:14;;;;;;;9.30;2.00;;;17.50;99.90;;;;;;5068762;28;20036;-65
2022/07/17 07:24:40;;;;;;;7.93;1.85;;;17.70;99.90;;;;;;5050406;28;20017;-65
2022/07/17 07:27:05;;;;;;;6.63;1.77;;;17.80;99.90;;;;;;5068123;28;20024;-65
2022/07/17 07:29:31;;;;;;;6.68;1.60;;;17.80;99.90;;;;;;5068271;28;20510;-66
2022/07/17 07:31:57;;;;;;;7.03;1.60;;;18.00;99.90;;;;;;5050381;28;20568;-65
2022/07/17 07:34:22;;;;;;;5.40;1.70;;;18.00;99.90;;;;;;5046320;28;20024;-65
2022/07/17 07:36:48;;;;;;;5.70;1.60;;;18.10;99.90;;;;;;5068472;28;20376;-65
2022/07/17 07:39:14;;;;;;;7.03;1.80;;;18.30;99.90;;;;;;5049701;28;20031;-66
2022/07/17 07:41:41;;;;;;;5.97;1.80;;;18.40;99.90;;;;;;5065154;28;20042;-66
2022/07/17 07:44:07;;;;;;;9.80;1.95;;;18.50;99.90;;;;;;5068322;28;20101;-66
2022/07/17 07:46:34;;;;;;;5.43;1.60;;;18.60;99.90;;;;;;5067784;28;20056;-66
2022/07/17 07:48:59;;;;;;;5.82;1.70;;;18.60;99.90;;;;;;5050746;28;20166;-65
2022/07/17 07:51:25;;;;;;;7.95;1.80;;;18.60;99.90;;;;;;5049732;28;20104;-66
2022/07/17 07:53:51;;;;;;;7.50;2.00;;;18.70;99.90;;;;;;5064827;28;20060;-66
2022/07/17 07:56:16;;;;;;;5.15;1.63;;;18.90;99.90;;;;;;5068125;28;20327;-66
2022/07/17 07:58:42;;;;;;;8.75;1.80;;;19.00;99.90;;;;;;5066322;28;20029;-66
2022/07/17 08:01:08;;;;;;;7.10;1.75;;;19.20;99.90;;;;;;5068160;28;20072;-66
2022/07/17 08:03:33;;;;;;;4.55;1.42;;;19.20;99.90;;;;;;5066853;28;20031;-66
2022/07/17 08:05:59;;;;;;;6.10;1.70;;;19.40;99.90;;;;;;5051218;28;20298;-66
2022/07/17 08:08:24;;;;;;;7.00;1.58;;;19.60;99.90;;;;;;5067405;28;20405;-66
2022/07/17 08:10:50;;;;;;;8.63;1.98;;;19.60;99.90;;;;;;5067825;28;20023;-66
2022/07/17 08:13:16;;;;;;;8.93;1.67;;;19.40;99.60;;;;;;5047967;28;20032;-65
2022/07/17 08:15:42;;;;;;;6.32;1.65;;;19.40;99.50;;;;;;5067637;28;20021;-65
2022/07/17 08:18:08;;;;;;;4.18;1.33;;;19.70;98.50;;;;;;5067894;28;20024;-65
2022/07/17 08:20:33;;;;;;;7.70;1.60;;;20.00;96.60;;;;;;5067282;28;20434;-66
2022/07/17 08:22:59;;;;;;;10.30;1.35;;;20.60;95.50;;;;;;5067630;28;20025;-66
2022/07/17 08:25:25;;;;;;;4.63;1.38;;;21.30;94.60;;;;;;5065391;28;20028;-66
2022/07/17 08:27:51;;;;;;;9.50;1.77;;;21.50;92.90;;;;;;5064121;28;20025;-66
2022/07/17 08:30:16;;;;;;;5.20;1.30;;;21.60;92.30;;;;;;5065922;28;20016;-66
2022/07/17 08:32:43;;;;;;;7.53;1.58;;;21.80;92.70;;;;;;5065855;28;20534;-66
2022/07/17 08:35:11;;;;;;;5.93;1.55;;;22.10;92.30;;;;;;5047552;28;20016;-67
2022/07/17 08:37:51;;;;;;;4.85;1.30;;;22.60;90.30;;;;;;5065657;28;20013;-67
2022/07/17 08:40:22;;;;;;;5.15;1.30;;;22.70;90.00;;;;;;5067422;28;20060;-67
2022/07/17 08:42:49;;;;;;;5.70;1.25;;;22.70;88.80;;;;;;5061789;28;20028;-66
2022/07/17 08:45:14;;;;;;;4.78;1.23;;;22.80;89.20;;;;;;5066948;28;20388;-66
2022/07/17 08:47:41;;;;;;;7.57;1.40;;;23.10;87.20;;;;;;5066494;28;20021;-66
2022/07/17 08:50:11;;;;;;;6.10;1.48;;;23.10;88.40;;;;;;5066027;28;20036;-66
2022/07/17 08:52:39;;;;;;;5.75;1.35;;;23.50;87.40;;;;;;5065299;28;20016;-66
2022/07/17 08:55:09;;;;;;;5.22;1.30;;;23.60;86.60;;;;;;5063082;28;20021;-66
2022/07/17 08:57:38;;;;;;;7.65;1.55;;;23.20;85.50;;;;;;5064588;28;20032;-66
2022/07/17 09:00:04;;;;;;;5.63;1.40;;;23.10;84.90;;;;;;5065521;28;20066;-66
2022/07/17 09:02:30;;;;;;;6.35;1.40;;;22.90;85.00;;;;;;5065748;28;20323;-66
2022/07/17 09:04:56;;;;;;;3.95;1.20;;;23.50;86.50;;;;;;5065284;28;20071;-66
2022/07/17 09:07:22;;;;;;;6.55;1.13;;;24.30;85.10;;;;;;5064986;28;20025;-67
2022/07/17 09:09:51;;;;;;;5.55;1.42;;;24.70;80.50;;;;;;5065443;28;20107;-66
2022/07/17 09:12:17;;;;;;;5.95;1.50;;;24.30;81.60;;;;;;5062065;28;20017;-66
2022/07/17 09:14:43;;;;;;;7.00;1.65;;;23.80;84.10;;;;;;5066078;28;20024;-67
2022/07/17 09:17:11;;;;;;;7.85;1.55;;;24.10;83.20;;;;;;5065963;28;20035;-66
2022/07/17 09:19:41;;;;;;;6.90;1.50;;;24.90;80.70;;;;;;5065630;28;20028;-66
2022/07/17 09:22:09;;;;;;;7.20;1.45;;;25.10;79.90;;;;;;5062490;28;20517;-66
2022/07/17 09:24:50;;;;;;;7.72;1.58;;;25.00;78.70;;;;;;5064858;28;20051;-66
2022/07/17 09:27:35;;;;;;;6.25;1.60;;;24.80;80.40;;;;;;5065840;28;20397;-67
2022/07/17 09:30:11;;;;;;;5.57;1.35;;;25.20;79.40;;;;;;5045642;28;20036;-66
2022/07/17 09:32:38;;;;;;;6.97;1.50;;;25.80;77.70;;;;;;5064823;28;20028;-67
2022/07/17 09:35:07;;;;;;;4.60;1.35;;;26.20;76.30;;;;;;5065950;28;20533;-66
2022/07/17 09:37:34;;;;;;;7.05;1.63;;;26.10;77.00;;;;;;5064942;28;20017;-67
2022/07/17 09:40:01;;;;;;;5.95;1.55;;;26.20;74.70;;;;;;5065898;28;20040;-66
2022/07/17 09:42:29;;;;;;;8.00;1.65;;;25.70;74.70;;;;;;5063664;28;20468;-68
2022/07/17 09:45:09;;;;;;;5.97;1.70;;;25.80;74.20;;;;;;5062233;28;20028;-66
2022/07/17 09:47:38;;;;;;;7.53;1.50;;;25.20;74.50;;;;;;5065309;28;20021;-66
2022/07/17 09:50:06;;;;;;;5.57;1.40;;;25.30;74.00;;;;;;5047118;28;20024;-66
2022/07/17 09:52:34;;;;;;;8.40;1.60;;;25.70;74.60;;;;;;5063796;28;20528;-66
2022/07/17 09:55:01;;;;;;;6.60;1.50;;;25.60;73.70;;;;;;5047696;28;20107;-66
2022/07/17 09:57:33;;;;;;;6.18;1.40;;;26.10;73.80;;;;;;5065425;28;20240;-66
2022/07/17 10:00:07;;;;;;;8.68;1.50;;;26.60;71.80;;;;;;5055250;28;20140;-66
2022/07/17 10:02:33;;;;;;;5.05;1.75;;;26.70;71.50;;;;;;5030018;28;20029;-66
2022/07/17 10:04:59;;;;;;;7.80;1.45;;;26.70;71.20;;;;;;5032288;28;20072;-66
2022/07/17 10:07:25;;;;;;;8.50;1.35;;;26.70;71.30;;;;;;5049266;28;20080;-66
2022/07/17 10:09:51;;;;;;;5.03;1.40;;;26.70;69.30;;;;;;5050028;28;20056;-66
2022/07/17 10:12:19;;;;;;;6.65;1.45;;;26.30;70.60;;;;;;5048118;28;20369;-66
2022/07/17 10:14:48;;;;;;;5.35;1.40;;;26.70;70.30;;;;;;5049437;28;20155;-66
2022/07/17 10:17:18;;;;;;;5.85;1.70;;;27.00;70.20;;;;;;5048192;28;20082;-66
2022/07/17 10:19:52;;;;;;;6.35;1.40;;;27.80;69.10;;;;;;5049290;28;20035;-66
2022/07/17 10:22:18;;;;;;;9.50;1.58;;;27.70;68.40;;;;;;5034365;28;20090;-66
2022/07/17 10:24:49;;;;;;;4.88;1.40;;;27.60;68.10;;;;;;5049973;28;20060;-66
2022/07/17 10:27:27;;;;;;;5.95;1.50;;;27.10;67.40;;;;;;5049292;28;20536;-66
2022/07/17 10:30:27;;;;;;;6.68;1.42;;;26.90;68.30;;;;;;5049216;28;20021;-66
2022/07/17 10:32:55;;;;;;;9.45;1.77;;;26.90;68.10;;;;;;5004912;28;20176;-66
2022/07/17 10:35:21;;;;;;;4.95;1.30;;;27.00;67.60;;;;;;5048089;28;20484;-66
2022/07/17 10:37:46;;;;;;;8.75;1.70;;;27.20;67.60;;;;;;5048715;28;20024;-66
2022/07/17 10:40:24;;;;;;;8.40;1.67;;;27.60;67.90;;;;;;5048493;28;20036;-67
2022/07/17 10:42:50;;;;;;;8.38;1.85;;;27.70;67.20;;;;;;5044797;28;20051;-69
2022/07/17 10:45:23;;;;;;;5.10;1.40;;;28.10;66.30;;;;;;5049553;28;20032;-67
2022/07/17 10:48:09;;;;;;;7.10;1.40;;;28.20;65.70;;;;;;5049359;28;20029;-68
2022/07/17 10:50:38;;;;;;;7.53;1.50;;;27.70;65.70;;;;;;5029325;28;20048;-68
2022/07/17 10:53:16;;;;;;;6.53;1.40;;;27.30;66.50;;;;;;5049148;28;20017;-66
2022/07/17 10:55:50;;;;;;;7.95;1.85;;;26.90;65.80;;;;;;5047954;28;20009;-66
2022/07/17 10:58:29;;;;;;;6.22;1.30;;;27.50;68.10;;;;;;5027954;28;20112;-66
2022/07/17 11:01:04;;;;;;;7.07;1.50;;;27.90;64.70;;;;;;5046557;28;20496;-66
2022/07/17 11:03:36;;;;;;;5.82;1.50;;;28.30;64.70;;;;;;5065694;28;20099;-66
2022/07/17 11:06:08;;;;;;;7.85;1.63;;;28.70;64.60;;;;;;5066195;28;20037;-68
2022/07/17 11:08:51;;;;;;;7.53;1.63;;;28.10;63.60;;;;;;5047003;28;20028;-67
2022/07/17 11:11:22;;;;;;;7.63;1.20;;;28.60;63.30;;;;;;5062654;28;20123;-67
2022/07/17 11:13:48;;;;;;;4.30;1.35;;;29.00;64.10;;;;;;5068113;28;20106;-67
2022/07/17 11:16:32;;;;;;;21.63;5.85;;;29.60;61.40;;;;;;5068595;28;20040;-66
2022/07/17 11:18:58;;;;;;;4.18;1.08;;;29.20;60.90;;;;;;5066318;28;20373;-66
2022/07/17 11:21:24;;;;;;;6.00;1.50;;;27.80;62.00;;;;;;5069599;28;20086;-66
2022/07/17 11:23:54;;;;;;;5.68;1.45;;;27.60;63.50;;;;;;5068743;28;20051;-67
2022/07/17 11:26:20;;;;;;;6.65;1.58;;;27.50;62.70;;;;;;5069346;28;20032;-67
2022/07/17 11:28:48;;;;;;;6.32;1.88;;;27.30;63.20;;;;;;5047329;28;20075;-66
2022/07/17 11:31:18;;;;;;;7.40;1.60;;;28.10;65.00;;;;;;5037010;28;20438;-67
2022/07/17 11:33:47;;;;;;;5.47;1.20;;;29.70;60.70;;;;;;5065941;28;20119;-66
2022/07/17 11:36:18;;;;;;;;;;;29.80;59.10;;;;;;5069616;28;20016;-67
2022/07/17 11:38:44;;;;;;;6.38;1.48;;;29.30;59.20;;;;;;5067670;28;19904;-68
2022/07/17 11:41:11;;;;;;;7.63;1.42;;;28.80;59.30;;;;;;5063326;28;20039;-68
2022/07/17 11:43:40;;;;;;;5.70;1.40;;;29.30;58.30;;;;;;5068478;28;20052;-69
2022/07/17 11:46:07;;;;;;;6.97;1.40;;;29.40;58.80;;;;;;5062438;28;20329;-68
2022/07/17 11:48:32;;;;;;;6.00;1.40;;;29.50;59.50;;;;;;5064000;28;20354;-68
2022/07/17 11:50:58;;;;;;;4.55;1.30;;;29.20;58.50;;;;;;5065048;28;20028;-68
2022/07/17 11:53:38;;;;;;;7.07;1.55;;;30.00;58.20;;;;;;5066002;28;20024;-68
2022/07/17 11:56:04;;;;;;;7.82;1.42;;;31.00;57.30;;;;;;5066782;28;20476;-68
2022/07/17 11:58:50;;;;;;;6.38;1.42;;;31.30;56.10;;;;;;5063567;28;20402;-68
2022/07/17 12:01:15;;;;;;;6.15;1.40;;;30.80;55.80;;;;;;5065807;28;20045;-68
2022/07/17 12:03:41;;;;;;;6.03;1.42;;;30.90;56.60;;;;;;5065026;28;20017;-68
2022/07/17 12:06:07;;;;;;;7.20;1.45;;;31.30;55.60;;;;;;5047288;28;20540;-69
2022/07/17 12:08:34;;;;;;;6.60;1.75;;;31.60;55.00;;;;;;5067175;28;20020;-69
2022/07/17 12:11:05;;;;;;;8.32;1.80;;;31.30;56.60;;;;;;5064460;28;20017;-69
2022/07/17 12:13:43;;;;;;;6.93;1.67;;;31.10;56.00;;;;;;5064266;28;20492;-69
2022/07/17 12:16:38;;;;;;;9.38;2.03;;;30.90;56.80;;;;;;5049701;28;20025;-69
2022/07/17 12:19:15;;;;;;;4.53;1.38;;;30.20;56.60;;;;;;5057767;28;20072;-68
2022/07/17 12:22:02;;;;;;;6.18;1.92;;;29.50;57.60;;;;;;5066301;28;20491;-69
2022/07/17 12:24:30;;;;;;;5.05;1.50;;;30.10;58.30;;;;;;5063521;28;20020;-69
2022/07/17 12:26:58;;;;;;;6.20;1.50;;;30.60;57.80;;;;;;5048297;28;20392;-68
2022/07/17 12:29:24;;;;;;;8.73;1.55;;;30.90;56.60;;;;;;5067886;28;20021;-68
2022/07/17 12:32:04;;;;;;;8.27;1.80;;;31.00;55.40;;;;;;5057921;28;20029;-68
2022/07/17 12:34:29;;;;;;;;;;;30.60;56.40;;;;;;5065380;28;20021;-68
2022/07/17 12:36:55;;;;;;;7.28;1.70;;;30.60;57.30;;;;;;5065458;28;20635;-68
2022/07/17 12:39:21;;;;;;;5.88;1.65;;;31.00;57.30;;;;;;5063447;28;20479;-68
2022/07/17 12:41:46;;;;;;;6.47;1.80;;;30.50;58.40;;;;;;5063069;28;20086;-68
2022/07/17 12:44:12;;;;;;;7.55;1.92;;;30.90;57.10;;;;;;5065403;28;20033;-68
2022/07/17 12:46:38;;;;;;;6.00;1.60;;;30.90;56.30;;;;;;5067802;28;20043;-69
2022/07/17 12:49:03;;;;;;;10.50;1.92;;;31.30;56.40;;;;;;5065125;28;20035;-68